createdAt,value
2022-12-23T00:04:19.505Z,73.67
2022-12-23T00:07:27.559Z,94.25
2022-12-23T00:14:38.076Z,65.67
2022-12-23T00:18:23.449Z,76.00
2022-12-23T00:21:32.053Z,75.33
2022-12-23T00:25:00.155Z,70.33
2022-12-23T00:28:16.764Z,88.75
2022-12-23T00:31:53.008Z,127.00
2022-12-23T00:35:46.794Z,89.00
2022-12-23T00:39:26.784Z,82.00
2022-12-23T00:43:02.341Z,81.67
2022-12-23T00:46:11.796Z,81.00
2022-12-23T00:49:47.816Z,77.67
2022-12-23T00:53:02.826Z,74.00
2022-12-23T00:56:26.274Z,74.67
2022-12-23T00:59:45.546Z,72.00
2022-12-23T01:03:18.346Z,60.33
2022-12-23T01:06:26.010Z,77.33
2022-12-23T01:09:36.143Z,85.33
2022-12-23T01:13:14.345Z,74.67
2022-12-23T01:16:22.452Z,66.33
2022-12-23T01:19:36.582Z,72.33
2022-12-23T01:22:51.952Z,70.00
2022-12-23T01:26:08.314Z,69.00
2022-12-23T01:29:19.023Z,76.67
2022-12-23T01:32:29.463Z,71.33
2022-12-23T01:35:38.771Z,71.00
2022-12-23T01:38:48.636Z,73.00
2022-12-23T01:42:12.092Z,72.00
2022-12-23T01:45:29.537Z,73.00
2022-12-23T01:48:50.807Z,75.67
2022-12-23T01:56:07.783Z,64.33
2022-12-23T01:59:42.349Z,76.00
2022-12-23T02:03:37.008Z,75.00
2022-12-23T02:07:11.311Z,68.00
2022-12-23T02:11:42.759Z,72.33
2022-12-23T02:19:21.578Z,81.67
2022-12-23T02:23:13.305Z,89.67
2022-12-23T02:27:12.894Z,71.67
2022-12-23T02:30:46.929Z,81.00
2022-12-23T02:34:17.245Z,79.33
2022-12-23T02:37:39.244Z,79.00
2022-12-23T02:40:57.267Z,83.00
2022-12-23T02:44:20.077Z,78.67
2022-12-23T02:48:24.039Z,79.67
2022-12-23T02:51:42.583Z,77.00
2022-12-23T02:54:57.572Z,83.00
2022-12-23T02:58:07.569Z,84.33
2022-12-23T03:01:37.065Z,74.67
2022-12-23T03:05:37.062Z,68.33
2022-12-23T03:09:01.945Z,75.33
2022-12-23T03:12:58.241Z,98.50
2022-12-23T03:16:43.467Z,80.33
2022-12-23T03:20:01.162Z,82.33
2022-12-23T03:23:42.469Z,74.67
2022-12-23T03:27:17.241Z,77.00
2022-12-23T03:31:02.983Z,73.00
2022-12-23T03:34:24.803Z,64.33
2022-12-23T03:37:37.947Z,76.00
2022-12-23T03:40:54.521Z,80.33
2022-12-23T03:44:08.804Z,75.33
2022-12-23T03:47:35.377Z,72.33
2022-12-23T03:51:27.075Z,74.00
2022-12-23T03:54:53.665Z,72.00
2022-12-23T03:58:27.817Z,70.33
2022-12-23T04:02:16.091Z,62.33
2022-12-23T04:06:23.391Z,66.00
2022-12-23T04:10:29.696Z,64.67
2022-12-23T04:13:54.249Z,74.67
2022-12-23T04:17:11.790Z,73.67
2022-12-23T04:20:33.289Z,71.00
2022-12-23T04:23:44.130Z,97.00
2022-12-23T04:26:59.103Z,65.33
2022-12-23T04:31:11.330Z,69.00
2022-12-23T04:35:36.595Z,57.00
2022-12-23T04:43:14.971Z,78.67
2022-12-23T04:46:34.759Z,82.33
2022-12-23T04:49:48.583Z,66.33
2022-12-23T04:53:04.730Z,66.33
2022-12-23T04:56:19.094Z,66.00
2022-12-23T04:59:31.622Z,62.33
2022-12-23T05:02:41.191Z,66.33
2022-12-23T05:06:05.242Z,63.67
2022-12-23T05:09:31.618Z,57.00
2022-12-23T05:21:11.821Z,68.67
2022-12-23T05:24:53.093Z,74.33
2022-12-23T05:28:54.916Z,62.67
2022-12-23T05:37:55.823Z,61.00
2022-12-23T05:41:40.833Z,69.67
2022-12-23T05:49:08.508Z,64.33
2022-12-23T05:52:45.393Z,78.33
2022-12-23T05:56:29.876Z,66.67
2022-12-23T05:59:53.113Z,99.50
2022-12-23T06:03:39.234Z,50.00
2022-12-23T06:07:22.393Z,76.67
2022-12-23T06:11:59.421Z,89.00
2022-12-23T06:16:43.979Z,189.25
2022-12-23T06:20:33.052Z,80.00
2022-12-23T06:28:25.358Z,86.67
2022-12-23T06:31:29.365Z,71.33
2022-12-23T06:34:33.637Z,73.33
2022-12-23T06:37:39.398Z,74.33
2022-12-23T06:40:43.894Z,71.00
2022-12-23T06:43:54.150Z,73.67
2022-12-23T06:47:04.242Z,92.75
2022-12-23T06:50:54.985Z,72.00
2022-12-23T06:54:58.556Z,80.33
2022-12-23T06:58:54.429Z,73.00
2022-12-23T07:06:47.366Z,108.25
2022-12-23T07:14:57.426Z,96.25
2022-12-23T07:18:14.348Z,106.50
2022-12-23T07:21:28.700Z,110.25
2022-12-23T07:24:33.272Z,107.50
2022-12-23T07:27:37.564Z,102.00
2022-12-23T07:30:41.253Z,122.25
2022-12-23T07:33:49.694Z,158.25
2022-12-23T07:36:55.431Z,124.75
2022-12-23T07:40:06.576Z,113.75
2022-12-23T07:43:12.495Z,95.75
2022-12-23T07:46:17.393Z,83.50
2022-12-23T07:49:24.048Z,96.50
2022-12-23T07:52:28.225Z,97.00
2022-12-23T07:55:36.363Z,125.00
2022-12-23T07:58:42.209Z,134.00
2022-12-23T08:01:47.463Z,128.00
2022-12-23T08:04:55.030Z,163.00
2022-12-23T08:08:01.337Z,120.25
2022-12-23T08:11:08.345Z,140.50
2022-12-23T08:14:38.859Z,155.00
2022-12-23T08:17:45.397Z,111.75
2022-12-23T08:20:57.436Z,132.00
2022-12-23T08:24:01.643Z,129.75
2022-12-23T08:27:07.487Z,121.50
2022-12-23T08:30:15.704Z,111.50
2022-12-23T08:33:19.478Z,113.75
2022-12-23T08:36:27.196Z,120.50
2022-12-23T08:39:31.028Z,126.75
2022-12-23T08:42:38.402Z,94.75
2022-12-23T08:45:42.070Z,109.50
2022-12-23T08:48:49.494Z,95.25
2022-12-23T08:51:55.249Z,106.00
2022-12-23T08:55:00.822Z,108.00
2022-12-23T08:58:04.881Z,81.67
2022-12-23T09:01:13.218Z,59.00
2022-12-23T09:04:17.417Z,58.00
2022-12-23T09:07:24.681Z,59.33
2022-12-23T09:10:29.292Z,68.00
2022-12-23T09:13:36.736Z,61.67
2022-12-23T09:16:42.078Z,63.33
2022-12-23T09:19:52.728Z,50.00
2022-12-23T09:23:00.592Z,51.25
2022-12-23T09:26:05.988Z,53.00
2022-12-23T09:29:09.950Z,63.67
2022-12-23T09:32:14.233Z,45.25
2022-12-23T09:35:18.820Z,44.50
2022-12-23T09:38:24.838Z,43.25
2022-12-23T09:41:44.986Z,43.00
2022-12-23T09:45:13.112Z,39.50
2022-12-23T09:48:28.797Z,35.50
2022-12-23T09:51:34.976Z,36.25
2022-12-23T09:54:46.103Z,34.00
2022-12-23T09:57:59.079Z,32.25
2022-12-23T10:01:15.726Z,32.25
2022-12-23T10:04:38.132Z,33.75
2022-12-23T10:07:47.440Z,36.25
2022-12-23T10:10:58.563Z,33.50
2022-12-23T10:14:12.311Z,32.50
2022-12-23T10:17:22.888Z,11.75
2022-12-23T10:20:38.087Z,17.25
2022-12-23T10:23:45.695Z,29.50
2022-12-23T10:26:55.143Z,27.75
2022-12-23T10:30:19.966Z,26.75
2022-12-23T10:33:37.365Z,27.00
2022-12-23T10:36:51.904Z,27.00
2022-12-23T10:40:09.243Z,27.00
2022-12-23T10:43:24.261Z,23.25
2022-12-23T10:46:38.078Z,24.00
2022-12-23T10:49:55.177Z,25.50
2022-12-23T10:53:07.785Z,24.75
2022-12-23T10:56:15.513Z,22.25
2022-12-23T10:59:27.480Z,24.00
2022-12-23T11:02:47.045Z,24.25
2022-12-23T11:05:54.445Z,28.50
2022-12-23T11:09:00.903Z,28.25
2022-12-23T11:12:08.232Z,29.00
2022-12-23T11:15:31.641Z,28.50
2022-12-23T11:18:41.869Z,27.75
2022-12-23T11:21:56.253Z,33.00
2022-12-23T11:25:26.889Z,33.00
2022-12-23T11:28:32.523Z,32.25
2022-12-23T11:31:38.276Z,31.75
2022-12-23T11:34:46.617Z,31.00
2022-12-23T11:37:50.564Z,34.00
2022-12-23T11:40:54.811Z,28.50
2022-12-23T11:44:05.118Z,30.75
2022-12-23T11:47:26.576Z,26.75
2022-12-23T11:50:34.490Z,27.75
2022-12-23T11:53:44.015Z,29.75
2022-12-23T11:56:51.667Z,28.75
2022-12-23T11:59:59.406Z,34.00
2022-12-23T12:03:20.396Z,32.00
2022-12-23T12:06:27.776Z,31.00
2022-12-23T12:09:32.848Z,33.75
2022-12-23T12:12:36.987Z,37.25
2022-12-23T12:15:50.462Z,33.75
2022-12-23T12:18:58.940Z,31.25
2022-12-23T12:22:15.587Z,36.25
2022-12-23T12:25:22.957Z,59.00
2022-12-23T12:28:30.553Z,37.00
2022-12-23T12:31:43.547Z,33.00
2022-12-23T12:34:56.083Z,84.67
2022-12-23T12:38:12.268Z,46.75
2022-12-23T12:41:23.422Z,34.25
2022-12-23T12:44:38.314Z,36.00
2022-12-23T12:47:55.245Z,34.50
2022-12-23T12:51:10.762Z,33.00
2022-12-23T12:54:22.520Z,32.00
2022-12-23T12:57:28.387Z,33.00
2022-12-23T13:00:48.005Z,31.50
2022-12-23T13:04:25.044Z,32.00
2022-12-23T13:07:39.468Z,33.25
2022-12-23T13:10:50.711Z,34.00
2022-12-23T13:14:03.615Z,32.00
2022-12-23T13:17:13.902Z,33.25
2022-12-23T13:20:29.107Z,32.75
2022-12-23T13:23:44.358Z,32.75
2022-12-23T13:26:59.277Z,33.75
2022-12-23T13:30:13.478Z,30.25
2022-12-23T13:33:27.042Z,40.00
2022-12-23T13:36:46.880Z,35.75
2022-12-23T13:39:59.423Z,40.00
2022-12-23T13:43:14.500Z,39.00
2022-12-23T13:46:36.435Z,54.25
2022-12-23T13:49:55.391Z,41.25
2022-12-23T13:53:11.626Z,49.25
2022-12-23T13:56:27.190Z,47.25
2022-12-23T13:59:45.694Z,54.50
2022-12-23T14:03:21.717Z,55.00
2022-12-23T14:06:47.500Z,50.75
2022-12-23T14:09:55.156Z,60.00
2022-12-23T14:13:33.050Z,61.00
2022-12-23T14:16:59.709Z,64.33
2022-12-23T14:20:18.929Z,70.00
2022-12-23T14:23:42.475Z,74.33
2022-12-23T14:27:14.208Z,68.33
2022-12-23T14:30:28.247Z,82.00
2022-12-23T14:33:35.893Z,85.67
2022-12-23T14:37:03.442Z,85.67
2022-12-23T14:40:55.093Z,81.67
2022-12-23T14:44:03.794Z,72.67
2022-12-23T14:47:32.847Z,69.00
2022-12-23T14:50:43.517Z,67.33
2022-12-23T14:54:13.469Z,64.67
2022-12-23T14:57:23.436Z,55.25
2022-12-23T15:00:50.872Z,51.25
2022-12-23T15:04:02.072Z,51.50
2022-12-23T15:07:08.879Z,52.75
2022-12-23T15:10:20.113Z,52.00
2022-12-23T15:13:26.933Z,57.50
2022-12-23T15:16:36.431Z,58.00
2022-12-23T15:19:49.231Z,57.75
2022-12-23T15:23:03.455Z,66.67
2022-12-23T15:26:07.633Z,61.00
2022-12-23T15:29:17.989Z,50.00
2022-12-23T15:32:25.854Z,47.25
2022-12-23T15:35:34.801Z,56.50
2022-12-23T15:38:42.928Z,68.00
2022-12-23T15:41:48.824Z,91.67
2022-12-23T15:44:55.464Z,106.75
2022-12-23T15:48:01.150Z,92.00
2022-12-23T15:51:21.953Z,105.00
2022-12-23T15:54:46.972Z,82.67
2022-12-23T15:57:52.827Z,71.00
2022-12-23T16:00:58.973Z,131.50
2022-12-23T16:04:05.622Z,62.33
2022-12-23T16:07:26.301Z,55.50
2022-12-23T16:10:30.215Z,42.00
2022-12-23T16:13:34.624Z,49.25
2022-12-23T16:16:45.322Z,43.75
2022-12-23T16:19:53.449Z,50.25
2022-12-23T16:23:08.248Z,54.25
2022-12-23T16:26:16.817Z,48.50
2022-12-23T16:29:21.795Z,46.50
2022-12-23T16:32:26.367Z,47.25
2022-12-23T16:35:37.965Z,50.25
2022-12-23T16:38:44.435Z,46.50
2022-12-23T16:41:48.275Z,47.00
2022-12-23T16:44:52.847Z,46.25
2022-12-23T16:47:58.931Z,45.00
2022-12-23T16:51:06.764Z,48.00
2022-12-23T16:54:15.842Z,63.00
2022-12-23T16:57:19.861Z,81.00
2022-12-23T17:00:24.618Z,80.33
2022-12-23T17:03:29.323Z,104.00
2022-12-23T17:06:33.103Z,65.67
2022-12-23T17:09:40.719Z,50.00
2022-12-23T17:12:45.729Z,50.75
2022-12-23T17:15:50.051Z,53.33
2022-12-23T17:18:57.477Z,70.33
2022-12-23T17:22:04.795Z,66.67
2022-12-23T17:25:13.145Z,65.67
2022-12-23T17:28:17.441Z,47.75
2022-12-23T17:31:26.970Z,45.25
2022-12-23T17:34:31.612Z,51.33
2022-12-23T17:37:35.489Z,62.33
2022-12-23T17:40:41.749Z,71.67
2022-12-23T17:43:45.657Z,72.33
2022-12-23T17:46:50.014Z,82.67
2022-12-23T17:49:53.792Z,61.67
2022-12-23T17:53:00.135Z,63.00
2022-12-23T17:56:15.571Z,58.00
2022-12-23T17:59:22.433Z,55.75
2022-12-23T18:02:30.753Z,60.00
2022-12-23T18:05:36.379Z,67.33
2022-12-23T18:08:40.024Z,80.33
2022-12-23T18:11:48.024Z,62.00
2022-12-23T18:14:52.323Z,51.33
2022-12-23T18:17:57.002Z,59.33
2022-12-23T18:21:00.971Z,60.67
2022-12-23T18:24:08.449Z,49.00
2022-12-23T18:27:15.911Z,68.33
2022-12-23T18:30:21.132Z,59.67
2022-12-23T18:33:28.956Z,63.67
2022-12-23T18:36:35.037Z,54.67
2022-12-23T18:39:38.809Z,43.33
2022-12-23T18:42:44.491Z,63.33
2022-12-23T18:45:53.205Z,54.00
2022-12-23T18:48:58.909Z,65.67
2022-12-23T18:52:05.133Z,59.00
2022-12-23T18:55:13.247Z,98.00
2022-12-23T18:58:19.701Z,54.33
2022-12-23T19:01:24.516Z,53.00
2022-12-23T19:04:28.968Z,57.33
2022-12-23T19:07:34.531Z,60.33
2022-12-23T19:10:39.092Z,63.00
2022-12-23T19:13:45.477Z,86.25
2022-12-23T19:16:52.338Z,65.33
2022-12-23T19:19:57.978Z,91.25
2022-12-23T19:23:03.229Z,61.33
2022-12-23T19:26:11.665Z,88.75
2022-12-23T19:29:17.385Z,78.67
2022-12-23T19:32:23.477Z,69.00
2022-12-23T19:35:34.155Z,70.00
2022-12-23T19:38:43.124Z,63.33
2022-12-23T19:41:48.302Z,66.33
2022-12-23T19:44:55.406Z,122.00
2022-12-23T19:48:03.839Z,127.25
2022-12-23T19:51:10.611Z,61.33
2022-12-23T19:54:14.185Z,63.00
2022-12-23T19:57:20.628Z,113.50
2022-12-23T20:00:26.104Z,92.75
2022-12-23T20:03:30.845Z,78.00
2022-12-23T20:06:39.183Z,59.00
2022-12-23T20:09:44.937Z,74.00
2022-12-23T20:12:49.193Z,90.50
2022-12-23T20:15:54.667Z,95.00
2022-12-23T20:19:01.305Z,79.00
2022-12-23T20:22:05.885Z,67.67
2022-12-23T20:25:12.269Z,61.67
2022-12-23T20:28:16.706Z,76.00
2022-12-23T20:31:23.338Z,67.67
2022-12-23T20:34:33.203Z,77.67
2022-12-23T20:37:40.410Z,127.00
2022-12-23T20:40:46.506Z,142.00
2022-12-23T20:44:31.792Z,122.00
2022-12-23T20:47:19.242Z,67.00
2022-12-23T20:50:24.895Z,62.67
2022-12-23T20:53:31.236Z,74.00
2022-12-23T20:56:35.218Z,64.67
2022-12-23T20:59:39.518Z,89.50
2022-12-23T21:02:48.511Z,92.00
2022-12-23T21:05:59.246Z,80.00
2022-12-23T21:09:05.652Z,98.50
2022-12-23T21:12:09.762Z,95.75
2022-12-23T21:15:13.579Z,60.00
2022-12-23T21:18:20.239Z,58.00
2022-12-23T21:21:26.658Z,61.00
2022-12-23T21:24:30.623Z,68.00
2022-12-23T21:27:34.239Z,61.33
2022-12-23T21:30:38.569Z,66.00
2022-12-23T21:33:46.365Z,66.67
2022-12-23T21:36:50.723Z,67.00
2022-12-23T21:39:56.491Z,55.33
2022-12-23T21:43:08.858Z,61.00
2022-12-23T21:46:40.869Z,57.33
2022-12-23T21:49:47.543Z,60.33
2022-12-23T21:52:51.326Z,104.50
2022-12-23T21:55:55.335Z,99.00
2022-12-23T21:59:00.358Z,63.00
2022-12-23T22:02:04.666Z,7.67
2022-12-23T22:05:11.841Z,73.33
2022-12-23T22:08:15.860Z,117.00
2022-12-23T22:11:21.980Z,39.75
2022-12-23T22:14:26.442Z,136.75
2022-12-23T22:17:31.789Z,108.75
2022-12-23T22:20:46.058Z,132.50
2022-12-23T22:23:51.782Z,127.25
2022-12-23T22:26:57.613Z,95.00
2022-12-23T22:30:03.026Z,86.50
2022-12-23T22:33:09.372Z,86.50
2022-12-23T22:36:17.218Z,119.50
2022-12-23T22:39:22.968Z,73.33
2022-12-23T22:42:26.962Z,53.33
2022-12-23T22:45:31.992Z,72.33
2022-12-23T22:48:37.226Z,88.00
2022-12-23T22:51:45.743Z,84.75
2022-12-23T22:54:49.608Z,95.75
2022-12-23T22:57:54.177Z,104.75
2022-12-23T23:00:59.134Z,119.75
2022-12-23T23:04:08.256Z,115.75
2022-12-23T23:07:14.930Z,112.25
2022-12-23T23:10:20.172Z,106.25
2022-12-23T23:13:26.542Z,111.75
2022-12-23T23:16:31.884Z,102.25
2022-12-23T23:19:35.894Z,103.00
2022-12-23T23:22:44.699Z,95.00
2022-12-23T23:25:48.817Z,93.25
2022-12-23T23:28:53.303Z,94.25
2022-12-23T23:31:57.152Z,92.50
2022-12-23T23:35:08.761Z,82.50
2022-12-23T23:38:17.078Z,92.50
2022-12-23T23:41:24.425Z,98.75
2022-12-23T23:44:30.159Z,86.75
2022-12-23T23:47:34.958Z,91.75
2022-12-23T23:50:46.234Z,107.00
2022-12-23T23:53:52.496Z,96.00
2022-12-23T23:56:57.629Z,88.75
